Agios Dimitrios, Greece

1:05 AM EET on February 11, 2016 (GMT +0200)
IU0391U017 | | Change Station
CLOSE
Current Station
Personal Weather Station
Location: Agios Dimitrios, Athens
Elevation: 295 ft
Nearby Weather Stations

Elev 295 ft 37.93 °N, 23.73 °E | Updated 12 days ago

Clear
Clear
57 °F
Feels Like 57 °F
N
10
Wind Variable Wind from SW
Gusts 15 mph

Today
High -- | Low -- °F
--% Chance of Precip.
Yesterday
High -- | Low -- °F
Precip. -- in
Pressure 29.74 in
Visibility 6.2 miles
Clouds Few 1500 ft
Scattered Clouds 2500 ft
Mostly Cloudy 7000 ft
Dew Point 50 °F
Humidity 78%
Rainfall in
Snow Depth Not available.
7:20 AM 5:58 PM
Waxing Crescent, 7% visible
METAR LGAV 102250Z 21021KT 9999 DZ FEW015 SCT025 BKN070 15/11 Q1007 NOSIG
Pressure 29.74 in
Visibility 6.2 miles
Clouds Few 1500 ft
Scattered Clouds 2500 ft
Mostly Cloudy 7000 ft
Dew Point 50 °F
Humidity 78%
Rainfall in
Snow Depth Not available.
7:20 AM 5:58 PM
Waxing Crescent, 7% visible
METAR LGAV 102250Z 21021KT 9999 DZ FEW015 SCT025 BKN070 15/11 Q1007 NOSIG

10-Day Weather Forecast

Almanac

Astronomy

Feb. 11, 2016 Rise Set
Actual Time
Civil Twilight
Nautical Twilight
Astronomical Twilight
Moon
Length of Visible Light
Length of Day
Tomorrow will be .
, % of the Moon is Illuminated

Today's Extremes

Country Highs Country Lows

Community

WunderPhotos

Upload Photos

1,891,933 photos uploaded!

WunderBlog® & News

Nearby

Air Quality

  Air Quality AQ Index Pollutant
Not available.

Snow Depth

Station Depth Elevation

Earthquake Activity

City Distance Mag. Time & Date
Minimum magnitude displayed is 2.5.

Coastal Water Temperatures

Place Temperature

Stations

Nearby Weather Stations

Station Location Temp. Windchill Dew Point Humidity Wind Precip. Elev Updated Type